Airfield :
LOGIN :

Register | Disclaimer

   EN    FR    IT 

 










Legend :    VFR   Marginal VFR   IFR   Intensive IFR   Very Intensive IFR
Visi :
Ceiling :
>= 8 km
>= 3000ft
5 to 8 km
1000 to 3000 ft
1500m to 5 km
500 to 1000 ft
800 to 1500m
200 to 500 ft
< 800m
< 200 ft
Symbols :   Thunderstorms  Fog  Heavy snow  Heavy precipitations  Wind > 20 kt
SIGMETs :     Misc.  Thunderstorms  Icing  Turbulence  Mountain Waves  Volcanic Ashes






- Airport Elevation : 1367 ft
- IATA code : FDH


EDNY - Friedrichshafen

CURRENT METAR :
  • 191450Z 23004KT CAVOK 12/06 Q1020

EXPIRED METARs :
  • 191420Z 22005KT CAVOK 12/06 Q1021
  • 191350Z 23005KT CAVOK 12/06 Q1021
  • 191320Z 20003KT 150V240 CAVOK 13/06 Q1021
  • 191250Z 22007KT 200V260 CAVOK 12/07 Q1022
  • 191220Z VRB02KT CAVOK 12/06 Q1022

TAF TAF EDNY
Valid from the 19 at 12:00 until the 20 at 12:00 UTC


191100Z 1912/2012 VRB02KT 9999 SCT020
TEMPO 1912/1915 24005KT
BECMG 1922/1924 3000 BR
BECMG 2000/2002 1200 BCFG BKN004
TEMPO 2002/2007 0500 FG
BECMG 2007/2009 6000 BKN007
BECMG 2009/2011 SCT012



MET'MAP, your aeronautical weather chart ! - Copyright ORBIFLY December 2007 - Disclaimer

ORBIFLY MET'MAP TEAM :

Programming & Development : Alexandra Zaïnal
Concept & original design : Baudouin d'Aumeries
Assistance for programming : Marc-Olivier Méhu
Technical & hardware support : Manuel Goepfert

Contact : metmap@orbifly.com




SOURCES & CREDITS :

   NOAA